createdAt,value
2022-12-22T00:00:54.717Z,100.00
2022-12-22T00:06:15.832Z,100.00
2022-12-22T00:11:37.689Z,100.00
2022-12-22T00:16:58.927Z,100.00
2022-12-22T00:22:23.902Z,100.00
2022-12-22T00:27:49.396Z,100.00
2022-12-22T00:33:10.306Z,100.00
2022-12-22T00:38:38.878Z,100.00
2022-12-22T00:43:59.998Z,100.00
2022-12-22T00:49:21.334Z,100.00
2022-12-22T00:54:42.556Z,100.00
2022-12-22T01:00:05.028Z,100.00
2022-12-22T01:05:26.480Z,100.00
2022-12-22T01:10:47.678Z,100.00
2022-12-22T01:16:08.746Z,100.00
2022-12-22T01:21:30.162Z,100.00
2022-12-22T01:26:51.425Z,100.00
2022-12-22T01:32:12.996Z,100.00
2022-12-22T01:37:34.064Z,100.00
2022-12-22T01:42:55.221Z,100.00
2022-12-22T01:48:16.526Z,100.00
2022-12-22T01:53:41.732Z,100.00
2022-12-22T01:59:06.760Z,100.00
2022-12-22T02:04:28.518Z,100.00
2022-12-22T02:10:13.173Z,100.00
2022-12-22T02:15:46.352Z,100.00
2022-12-22T02:21:12.673Z,100.00
2022-12-22T02:26:50.442Z,100.00
2022-12-22T02:32:11.705Z,100.00
2022-12-22T02:37:50.867Z,100.00
2022-12-22T02:43:14.977Z,100.00
2022-12-22T02:48:39.169Z,100.00
2022-12-22T02:54:00.753Z,100.00
2022-12-22T02:59:21.676Z,100.00
2022-12-22T03:04:42.639Z,100.00
2022-12-22T03:10:03.617Z,100.00
2022-12-22T03:15:25.612Z,100.00
2022-12-22T03:20:46.837Z,100.00
2022-12-22T03:25:55.778Z,100.00
2022-12-22T03:31:02.691Z,100.00
2022-12-22T03:36:07.314Z,100.00
2022-12-22T03:41:29.839Z,100.00
2022-12-22T03:46:32.447Z,100.00
2022-12-22T03:51:37.827Z,100.00
2022-12-22T03:56:41.450Z,100.00
2022-12-22T04:01:52.793Z,100.00
2022-12-22T04:06:55.536Z,100.00
2022-12-22T04:12:16.644Z,100.00
2022-12-22T04:17:19.212Z,100.00
2022-12-22T04:22:21.710Z,100.00
2022-12-22T04:27:24.395Z,100.00
2022-12-22T04:32:26.929Z,100.00
2022-12-22T04:37:29.552Z,100.00
2022-12-22T04:42:32.102Z,100.00
2022-12-22T04:47:34.895Z,100.00
2022-12-22T04:52:37.445Z,100.00
2022-12-22T04:57:41.059Z,100.00
2022-12-22T05:02:43.978Z,100.00
2022-12-22T05:07:46.591Z,100.00
2022-12-22T05:12:54.996Z,100.00
2022-12-22T05:17:58.513Z,100.00
2022-12-22T05:23:01.189Z,100.00
2022-12-22T05:28:03.992Z,100.00
2022-12-22T05:33:06.609Z,100.00
2022-12-22T05:38:09.218Z,100.00
2022-12-22T05:43:11.742Z,100.00
2022-12-22T05:48:14.299Z,100.00
2022-12-22T05:53:16.801Z,100.00
2022-12-22T05:58:19.734Z,100.00
2022-12-22T06:03:22.432Z,100.00
2022-12-22T06:08:25.836Z,100.00
2022-12-22T06:13:28.400Z,100.00
2022-12-22T06:18:31.018Z,100.00
2022-12-22T06:23:33.752Z,100.00
2022-12-22T06:28:36.312Z,100.00
2022-12-22T06:33:38.931Z,100.00
2022-12-22T06:38:41.551Z,100.00
2022-12-22T06:43:44.092Z,100.00
2022-12-22T06:48:46.605Z,100.00
2022-12-22T06:53:49.231Z,100.00
2022-12-22T06:58:51.832Z,100.00
2022-12-22T07:03:54.502Z,100.00
2022-12-22T07:08:57.134Z,100.00
2022-12-22T07:13:59.738Z,100.00
2022-12-22T07:19:02.263Z,100.00
2022-12-22T07:24:05.275Z,100.00
2022-12-22T07:29:07.914Z,100.00
2022-12-22T07:34:10.472Z,100.00
2022-12-22T07:39:13.387Z,100.00
2022-12-22T07:44:15.918Z,100.00
2022-12-22T07:49:37.160Z,100.00
2022-12-22T07:54:42.142Z,100.00
2022-12-22T07:59:45.496Z,100.00
2022-12-22T08:04:48.133Z,100.00
2022-12-22T08:09:50.808Z,100.00
2022-12-22T08:14:53.315Z,100.00
2022-12-22T08:19:56.202Z,100.00
2022-12-22T08:24:59.141Z,100.00
2022-12-22T08:30:02.530Z,100.00
2022-12-22T08:35:08.661Z,100.00
2022-12-22T08:40:32.255Z,100.00
2022-12-22T08:45:35.137Z,100.00
2022-12-22T08:50:37.928Z,100.00
2022-12-22T08:55:40.531Z,100.00
2022-12-22T09:00:43.210Z,100.00
2022-12-22T09:05:45.954Z,100.00
2022-12-22T09:10:48.567Z,100.00
2022-12-22T09:15:51.094Z,100.00
2022-12-22T09:20:56.591Z,100.00
2022-12-22T09:25:59.430Z,100.00
2022-12-22T09:31:02.212Z,100.00
2022-12-22T09:36:09.330Z,100.00
2022-12-22T09:41:39.536Z,100.00
2022-12-22T09:46:42.408Z,100.00
2022-12-22T09:51:52.432Z,100.00
2022-12-22T09:56:55.785Z,100.00
2022-12-22T10:02:19.645Z,100.00
2022-12-22T10:07:34.458Z,100.00
2022-12-22T10:12:37.836Z,100.00
2022-12-22T10:17:40.539Z,100.00
2022-12-22T10:22:55.484Z,100.00
2022-12-22T10:28:00.500Z,100.00
2022-12-22T10:33:05.990Z,100.00
2022-12-22T10:38:22.614Z,100.00
2022-12-22T10:43:28.424Z,100.00
2022-12-22T10:48:36.541Z,100.00
2022-12-22T10:53:50.102Z,100.00
2022-12-22T10:59:06.006Z,100.00
2022-12-22T11:04:26.255Z,100.00
2022-12-22T11:09:34.160Z,100.00
2022-12-22T11:14:57.591Z,100.00
2022-12-22T11:20:06.143Z,100.00
2022-12-22T11:25:27.125Z,100.00
2022-12-22T11:30:51.058Z,100.00
2022-12-22T11:36:05.166Z,100.00
2022-12-22T11:41:20.031Z,100.00
2022-12-22T11:46:34.764Z,100.00
2022-12-22T11:52:28.053Z,100.00
2022-12-22T11:58:01.015Z,100.00
2022-12-22T12:03:18.585Z,100.00
2022-12-22T12:08:34.733Z,100.00
2022-12-22T12:13:45.782Z,100.00
2022-12-22T12:19:13.259Z,100.00
2022-12-22T12:24:51.564Z,100.00
2022-12-22T12:30:35.634Z,100.00
2022-12-22T12:35:31.864Z,100.00
2022-12-22T12:41:01.653Z,100.00
2022-12-22T12:46:42.172Z,100.00
2022-12-22T12:51:50.920Z,100.00
2022-12-22T12:57:06.515Z,100.00
2022-12-22T13:02:27.724Z,100.00
2022-12-22T13:08:24.495Z,100.00
2022-12-22T13:13:27.001Z,100.00
2022-12-22T13:18:29.535Z,100.00
2022-12-22T13:23:58.435Z,100.00
2022-12-22T13:29:08.101Z,100.00
2022-12-22T13:34:23.248Z,100.00
2022-12-22T13:39:25.983Z,100.00
2022-12-22T13:44:31.520Z,100.00
2022-12-22T13:50:07.079Z,100.00
2022-12-22T13:54:58.129Z,100.00
2022-12-22T14:00:00.741Z,100.00
2022-12-22T14:05:09.347Z,100.00
2022-12-22T14:10:12.932Z,100.00
2022-12-22T14:15:19.265Z,100.00
2022-12-22T14:20:43.020Z,100.00
2022-12-22T14:25:48.270Z,100.00
2022-12-22T14:30:54.023Z,100.00
2022-12-22T14:36:26.234Z,100.00
2022-12-22T14:41:44.487Z,100.00
2022-12-22T14:47:12.517Z,100.00
2022-12-22T14:52:39.588Z,100.00
2022-12-22T14:57:43.128Z,100.00
2022-12-22T15:02:54.262Z,100.00
2022-12-22T15:08:08.052Z,100.00
2022-12-22T15:13:22.763Z,100.00
2022-12-22T15:18:28.187Z,100.00
2022-12-22T15:23:30.746Z,100.00
2022-12-22T15:28:33.640Z,100.00
2022-12-22T15:33:36.228Z,100.00
2022-12-22T15:38:39.916Z,100.00
2022-12-22T15:43:59.343Z,100.00
2022-12-22T15:49:02.818Z,100.00
2022-12-22T15:54:05.497Z,100.00
2022-12-22T15:59:20.427Z,100.00
2022-12-22T16:04:23.893Z,100.00
2022-12-22T16:09:39.638Z,100.00
2022-12-22T16:14:50.474Z,100.00
2022-12-22T16:19:54.041Z,100.00
2022-12-22T16:24:56.842Z,100.00
2022-12-22T16:29:59.503Z,100.00
2022-12-22T16:35:11.137Z,100.00
2022-12-22T16:40:13.808Z,100.00
2022-12-22T16:45:23.153Z,100.00
2022-12-22T16:50:32.979Z,100.00
2022-12-22T16:55:36.113Z,100.00
2022-12-22T17:00:41.007Z,100.00
2022-12-22T17:05:59.449Z,99.96
2022-12-22T17:11:10.361Z,99.84
2022-12-22T17:16:22.274Z,100.00
2022-12-22T17:21:25.661Z,99.87
2022-12-22T17:26:28.212Z,100.00
2022-12-22T17:31:31.128Z,99.79
2022-12-22T17:36:37.669Z,99.44
2022-12-22T17:41:41.305Z,99.29
2022-12-22T17:46:44.310Z,99.44
2022-12-22T17:51:47.421Z,99.61
2022-12-22T17:56:50.273Z,99.53
2022-12-22T18:01:53.017Z,99.59
2022-12-22T18:06:56.144Z,99.36
2022-12-22T18:11:58.736Z,99.29
2022-12-22T18:17:01.365Z,99.72
2022-12-22T18:22:04.085Z,99.75
2022-12-22T18:27:12.397Z,99.44
2022-12-22T18:32:23.824Z,99.17
2022-12-22T18:37:29.944Z,99.18
2022-12-22T18:42:34.546Z,99.27
2022-12-22T18:47:37.128Z,98.70
2022-12-22T18:52:39.931Z,99.32
2022-12-22T18:57:45.703Z,99.21
2022-12-22T19:02:50.738Z,98.78
2022-12-22T19:07:54.468Z,98.95
2022-12-22T19:12:57.916Z,98.55
2022-12-22T19:18:00.521Z,98.86
2022-12-22T19:23:03.163Z,98.77
2022-12-22T19:28:14.855Z,98.40
2022-12-22T19:33:27.391Z,98.47
2022-12-22T19:38:30.838Z,98.09
2022-12-22T19:43:33.720Z,98.36
2022-12-22T19:48:36.295Z,97.71
2022-12-22T19:53:38.942Z,98.04
2022-12-22T19:58:41.831Z,98.35
2022-12-22T20:03:44.541Z,98.32
2022-12-22T20:08:47.398Z,98.40
2022-12-22T20:13:50.123Z,98.08
2022-12-22T20:18:52.734Z,98.19
2022-12-22T20:23:58.413Z,98.31
2022-12-22T20:29:01.007Z,97.70
2022-12-22T20:34:03.559Z,98.07
2022-12-22T20:39:12.209Z,97.61
2022-12-22T20:44:14.835Z,97.73
2022-12-22T20:49:17.403Z,97.56
2022-12-22T20:54:20.442Z,97.87
2022-12-22T20:59:24.277Z,97.77
2022-12-22T21:04:26.859Z,97.82
2022-12-22T21:09:30.792Z,97.27
2022-12-22T21:14:33.536Z,97.63
2022-12-22T21:19:36.135Z,97.80
2022-12-22T21:24:38.741Z,97.95
2022-12-22T21:29:41.322Z,97.75
2022-12-22T21:34:44.069Z,97.62
2022-12-22T21:39:46.769Z,98.17
2022-12-22T21:44:50.661Z,98.04
2022-12-22T21:49:53.206Z,97.68
2022-12-22T21:54:55.808Z,97.47
2022-12-22T21:59:58.464Z,97.36
2022-12-22T22:05:00.988Z,97.05
2022-12-22T22:10:03.837Z,96.97
2022-12-22T22:15:08.039Z,97.15
2022-12-22T22:20:15.141Z,96.99
2022-12-22T22:25:19.273Z,96.97
2022-12-22T22:30:26.054Z,97.10
2022-12-22T22:35:28.900Z,97.77
2022-12-22T22:40:31.542Z,97.51
2022-12-22T22:45:37.168Z,97.73
2022-12-22T22:50:42.682Z,97.33
2022-12-22T22:55:45.239Z,97.20
2022-12-22T23:00:48.034Z,97.10
2022-12-22T23:05:50.629Z,96.86
2022-12-22T23:10:53.279Z,97.01
2022-12-22T23:16:01.807Z,96.80
2022-12-22T23:21:06.809Z,96.69
2022-12-22T23:26:09.419Z,97.01
2022-12-22T23:31:12.794Z,96.81
2022-12-22T23:36:15.684Z,97.13
2022-12-22T23:41:18.882Z,97.17
2022-12-22T23:46:21.847Z,96.89
2022-12-22T23:51:27.360Z,97.10
2022-12-22T23:56:30.525Z,97.13
